»·PEaware :: QF2657 YMML-YSSY

QF2657 :: YMML-YSSY

FLIGHT INFORMATION

Flight Status: Arrived
Operator: Unknown
More flights by this operator :: More flights under this callsign
Pilot: Alan S. (10569)
Aircraft: AIRBUS A330-200
(A332)
More flights by this aircraft type
Origin: YMML Melbourne Intl
Australia
Destination: YSSY Kingsford Smith Intl
Australia
More flights between these airports :: More routes between these airports
Route: DOSEL8 DOSEL Y59 RIVET RIVET2 ILS34L
File this flight plan on PilotEdge
Remarks: EQUIP / G @twitch.tv / aerosimgaming
Altitude:
(Current/Filed)
33,000ft
Speed:
(Current/Filed)
500kts
Departed: 05-Jun-16 08:55 PM
Arrived: 05-Jun-16 10:04 PM
Distance/Time
Traveled:
380nm/1:08
Distance/Time
To Go:
Arrived

Flight Plot

Page will automatically refresh every two minutes.


Map Options




Map Legend


Flown Route
Filed Route
Departure Airport
Arrival Airport
Navaid (VOR, NDB)
Fix

Horizontal Profiles

Position Reports

Time Latitude Longitude Heading Altitude Ground
Speed
05-Jun-16 20:49 -37.685392 144.842842 243 446ft 0kts
05-Jun-16 20:50 -37.685392 144.842842 243 446ft 0kts
05-Jun-16 20:51 -37.685449 144.842696 245 446ft 4kts
05-Jun-16 20:52 -37.682804 144.840461 351 446ft 61kts
05-Jun-16 20:53 -37.640900 144.832438 353 2170ft 200kts
05-Jun-16 20:54 -37.577237 144.828789 18 4296ft 259kts
05-Jun-16 20:55 -37.513168 144.866274 25 7625ft 265kts
05-Jun-16 20:56 -37.446239 144.908805 26 10428ft 287kts
05-Jun-16 20:57 -37.383292 144.968155 56 13452ft 284kts
05-Jun-16 20:58 -37.338720 145.055434 57 15714ft 322kts
05-Jun-16 20:59 -37.289915 145.152774 59 18655ft 336kts
05-Jun-16 21:00 -37.242787 145.255807 61 21112ft 355kts
05-Jun-16 21:01 -37.190542 145.360828 55 23796ft 362kts
05-Jun-16 21:02 -37.136060 145.463977 57 26269ft 367kts
05-Jun-16 21:03 -37.079942 145.578533 58 27491ft 406kts
05-Jun-16 21:04 -37.019375 145.692972 53 29462ft 417kts
05-Jun-16 21:05 -36.952516 145.810204 56 31466ft 424kts
05-Jun-16 21:06 -36.887496 145.937286 58 31726ft 471kts
05-Jun-16 21:07 -36.817395 146.075758 57 32258ft 481kts
05-Jun-16 21:08 -36.746537 146.215644 57 32739ft 486kts
05-Jun-16 21:09 -36.672011 146.351658 56 32726ft 485kts
05-Jun-16 21:10 -36.596753 146.489307 56 32724ft 485kts
05-Jun-16 21:11 -36.528071 146.614994 56 32728ft 482kts
05-Jun-16 21:12 -36.455782 146.747591 55 32724ft 485kts
05-Jun-16 21:13 -36.381230 146.883507 51 32715ft 485kts
05-Jun-16 21:14 -36.299582 147.012704 54 32724ft 486kts
05-Jun-16 21:15 -36.222628 147.146999 54 32724ft 486kts
05-Jun-16 21:16 -36.146523 147.279840 55 32731ft 486kts
05-Jun-16 21:17 -36.071361 147.415146 56 33045ft 488kts
05-Jun-16 21:18 -36.001566 147.548773 57 32833ft 443kts
05-Jun-16 21:19 -35.933302 147.675494 56 32726ft 481kts
05-Jun-16 21:20 -35.862002 147.807283 56 32314ft 483kts
05-Jun-16 21:21 -35.788808 147.942067 56 31345ft 475kts
05-Jun-16 21:22 -35.716228 148.075721 56 30374ft 468kts
05-Jun-16 21:23 -35.644443 148.207918 56 29456ft 487kts
05-Jun-16 21:24 -35.570143 148.344763 56 28486ft 486kts
05-Jun-16 21:25 -35.496005 148.481305 56 27510ft 479kts
05-Jun-16 21:26 -35.423497 148.614842 56 26543ft 472kts
05-Jun-16 21:27 -35.354418 148.742333 56 25608ft 466kts
05-Jun-16 21:28 -35.285194 148.870267 56 24656ft 459kts
05-Jun-16 21:29 -35.215371 148.999307 56 23681ft 453kts
05-Jun-16 21:30 -35.147012 149.125643 56 22710ft 446kts
05-Jun-16 21:31 -35.088068 149.234585 56 21880ft 445kts
05-Jun-16 21:32 -35.023500 149.353904 56 20861ft 409kts
05-Jun-16 21:33 -34.961738 149.468052 56 19890ft 402kts
05-Jun-16 21:34 -34.900896 149.580520 57 18912ft 397kts
05-Jun-16 21:35 -34.844738 149.683739 56 17996ft 391kts
05-Jun-16 21:36 -34.785543 149.792911 56 17012ft 385kts
05-Jun-16 21:37 -34.730030 149.892187 51 15876ft 382kts
05-Jun-16 21:38 -34.656675 149.981632 46 14239ft 369kts
05-Jun-16 21:39 -34.585790 150.069709 45 12546ft 360kts
05-Jun-16 21:40 -34.516711 150.155639 45 10851ft 350kts
05-Jun-16 21:41 -34.450106 150.239209 45 9161ft 341kts
05-Jun-16 21:42 -34.395887 150.307982 45 8190ft 336kts
05-Jun-16 21:43 -34.323178 150.401195 46 7005ft 308kts
05-Jun-16 21:44 -34.276608 150.461971 46 6145ft 282kts
05-Jun-16 21:45 -34.230335 150.555259 59 5883ft 278kts
05-Jun-16 21:46 -34.198904 150.623222 59 5820ft 279kts
05-Jun-16 21:47 -34.161704 150.704340 59 6086ft 279kts
05-Jun-16 21:48 -34.124103 150.786343 58 6117ft 280kts
05-Jun-16 21:49 -34.135306 150.865317 162 6036ft 286kts
05-Jun-16 21:50 -34.208634 150.892366 164 5911ft 265kts
05-Jun-16 21:51 -34.270338 150.930100 120 5424ft 246kts
05-Jun-16 21:52 -34.274089 151.000828 71 5132ft 217kts
05-Jun-16 21:53 -34.257156 151.072891 70 5128ft 228kts
05-Jun-16 21:54 -34.237023 151.136769 48 4931ft 192kts
05-Jun-16 21:55 -34.202508 151.186060 44 4627ft 183kts
05-Jun-16 21:56 -34.166517 151.228007 13 4043ft 173kts
05-Jun-16 21:57 -34.123127 151.222142 342 3398ft 166kts
05-Jun-16 21:58 -34.078169 151.209823 342 2514ft 162kts
05-Jun-16 21:59 -34.033944 151.198879 336 1522ft 157kts
05-Jun-16 22:00 -33.990440 151.188231 337 640ft 155kts
05-Jun-16 22:01 -33.951799 151.177578 347 34ft 37kts
05-Jun-16 22:02 -33.949023 151.176892 348 34ft 20kts
05-Jun-16 22:03 -33.945033 151.177236 17 34ft 15kts
05-Jun-16 22:04 -33.938294 151.176167 347 34ft 28kts
05-Jun-16 22:05 -33.934317 151.176967 97 34ft 4kts
05-Jun-16 22:06 -33.934318 151.176974 97 34ft 0kts
05-Jun-16 22:07 -33.934318 151.176974 97 34ft 0kts
05-Jun-16 22:08 -33.934318 151.176974 97 34ft 0kts
05-Jun-16 22:09 -34.135202 151.224839 341 3630ft 156kts
05-Jun-16 22:10 -34.041602 151.201202 336 1702ft 158kts
05-Jun-16 22:11 -33.951455 151.177489 347 34ft 0kts
05-Jun-16 22:12 -33.951455 151.177489 347 34ft 0kts
05-Jun-16 22:13 -34.015745 151.193783 339 1144ft 165kts
05-Jun-16 22:14 -33.958850 151.179485 340 43ft 154kts
05-Jun-16 22:15 -33.951455 151.177489 347 34ft 0kts

Navigation Log

Ident Type
Flight plan parsing failed, navigation log unavailable